Time;durP1;ratioP1;P1;durP2;ratioP2;P2;SDS_P1;SDS_P2;PMS_P1;PMS_P2;Temp;Humidity;BMP_temperature;BMP_pressure;BME280_temperature;BME280_humidity;BME280_pressure;Samples;Min_cycle;Max_cycle;Signal;HPM_P1;HPM_P2
2022/03/28 00:02:22;;;;;;;19.65;13.52;;;;;;;;;;143742;575;47022;-64
2022/03/28 00:04:49;;;;;;;25.02;15.70;;;;;;;;;;143737;612;46020;-64
2022/03/28 00:07:16;;;;;;;22.70;13.65;;;;;;;;;;143739;589;46022;-65
2022/03/28 00:09:43;;;;;;;23.67;14.32;;;;;;;;;;143742;581;46012;-64
2022/03/28 00:12:10;;;;;;;24.58;13.35;;;;;;;;;;143742;581;46012;-65
2022/03/28 00:14:37;;;;;;;18.50;13.18;;;;;;;;;;143741;600;46020;-65
2022/03/28 00:17:05;;;;;;;20.20;12.77;;;;;;;;;;143741;628;46022;-64
2022/03/28 00:19:31;;;;;;;20.05;13.15;;;;;;;;;;143741;604;46012;-64
2022/03/28 00:21:58;;;;;;;19.52;13.82;;;;;;;;;;143740;565;45022;-65
2022/03/28 00:24:25;;;;;;;17.77;12.95;;;;;;;;;;143742;605;45020;-64
2022/03/28 00:26:54;;;;;;;21.50;13.43;;;;;;;;;;143739;594;46023;-64
2022/03/28 00:29:21;;;;;;;20.98;13.38;;;;;;;;;;143739;683;46018;-64
2022/03/28 00:31:48;;;;;;;19.87;14.02;;;;;;;;;;143744;588;45022;-64
2022/03/28 00:34:15;;;;;;;19.20;12.95;;;;;;;;;;143741;581;46020;-65
2022/03/28 00:36:43;;;;;;;18.60;13.15;;;;;;;;;;143738;610;46031;-64
2022/03/28 00:39:10;;;;;;;19.02;13.18;;;;;;;;;;143742;586;46012;-65
2022/03/28 00:41:37;;;;;;;23.73;15.18;;;;;;;;;;143744;586;46022;-64
2022/03/28 00:44:07;;;;;;;27.77;12.50;;;;;;;;;;143741;661;46021;-64
2022/03/28 00:46:35;;;;;;;16.77;12.73;;;;;;;;;;143739;599;46022;-65
2022/03/28 00:49:02;;;;;;;23.75;13.77;;;;;;;;;;143741;566;46012;-64
2022/03/28 00:51:29;;;;;;;23.02;14.40;;;;;;;;;;143744;583;45023;-64
2022/03/28 00:53:57;;;;;;;28.30;14.82;;;;;;;;;;143739;580;47020;-65
2022/03/28 00:56:24;;;;;;;19.25;12.95;;;;;;;;;;143739;586;46023;-64
2022/03/28 00:58:52;;;;;;;19.48;12.95;;;;;;;;;;143743;584;45031;-65
2022/03/28 01:01:19;;;;;;;20.58;11.90;;;;;;;;;;143744;567;46022;-64
2022/03/28 01:03:46;;;;;;;16.98;10.90;;;;;;;;;;143741;590;46020;-64
2022/03/28 01:06:13;;;;;;;19.08;11.68;;;;;;;;;;143738;603;46022;-65
2022/03/28 01:08:40;;;;;;;23.80;13.60;;;;;;;;;;143738;585;46018;-64
2022/03/28 01:11:11;;;;;;;18.00;12.80;;;;;;;;;;143745;585;45023;-65
2022/03/28 01:13:40;;;;;;;20.98;13.65;;;;;;;;;;143741;580;46021;-65
2022/03/28 01:16:08;;;;;;;17.45;12.77;;;;;;;;;;143740;611;46022;-64
2022/03/28 01:18:36;;;;;;;24.80;15.70;;;;;;;;;;143743;566;46013;-64
2022/03/28 01:21:05;;;;;;;22.60;14.60;;;;;;;;;;143743;647;45023;-64
2022/03/28 01:23:32;;;;;;;23.12;15.02;;;;;;;;;;143741;574;46020;-64
2022/03/28 01:25:59;;;;;;;22.73;14.68;;;;;;;;;;143739;651;46023;-64
2022/03/28 01:28:27;;;;;;;21.92;13.75;;;;;;;;;;143740;571;46012;-64
2022/03/28 01:30:54;;;;;;;21.35;15.20;;;;;;;;;;143744;686;46022;-64
2022/03/28 01:33:22;;;;;;;25.50;16.58;;;;;;;;;;143741;621;46020;-64
2022/03/28 01:35:49;;;;;;;15.80;11.90;;;;;;;;;;143739;581;46023;-64
2022/03/28 01:38:19;;;;;;;19.87;12.80;;;;;;;;;;143740;714;46012;-64
2022/03/28 01:40:51;;;;;;;21.52;13.23;;;;;;;;;;143746;662;46012;-64
2022/03/28 01:43:20;;;;;;;23.08;14.07;;;;;;;;;;143742;590;46021;-64
2022/03/28 01:45:47;;;;;;;18.67;12.43;;;;;;;;;;143739;624;46022;-64
2022/03/28 01:48:15;;;;;;;24.52;13.70;;;;;;;;;;143740;571;46012;-65
2022/03/28 01:50:42;;;;;;;26.67;14.57;;;;;;;;;;143745;652;45023;-64
2022/03/28 01:53:10;;;;;;;16.20;11.60;;;;;;;;;;143742;577;46020;-64
2022/03/28 01:55:37;;;;;;;20.80;15.23;;;;;;;;;;143738;665;46023;-64
2022/03/28 01:58:04;;;;;;;22.80;13.77;;;;;;;;;;143740;602;46012;-64
2022/03/28 02:00:32;;;;;;;19.30;11.50;;;;;;;;;;143742;598;46022;-64
2022/03/28 02:03:00;;;;;;;20.75;12.93;;;;;;;;;;143742;605;46020;-65
2022/03/28 02:05:27;;;;;;;22.02;13.05;;;;;;;;;;143738;575;46023;-64
2022/03/28 02:07:54;;;;;;;19.65;11.82;;;;;;;;;;143741;632;46018;-64
2022/03/28 02:10:22;;;;;;;21.27;12.13;;;;;;;;;;143743;592;45023;-65
2022/03/28 02:12:50;;;;;;;24.15;14.15;;;;;;;;;;143741;646;46021;-64
2022/03/28 02:15:17;;;;;;;19.02;13.13;;;;;;;;;;143741;590;46022;-64
2022/03/28 02:17:44;;;;;;;19.02;13.00;;;;;;;;;;143741;565;46012;-64
2022/03/28 02:20:12;;;;;;;19.75;11.55;;;;;;;;;;143743;586;46023;-64
2022/03/28 02:22:41;;;;;;;23.40;11.70;;;;;;;;;;143742;582;46020;-64
2022/03/28 02:25:10;;;;;;;20.33;12.98;;;;;;;;;;143739;573;46023;-64
2022/03/28 02:27:38;;;;;;;20.45;13.27;;;;;;;;;;143742;585;46012;-64
2022/03/28 02:30:06;;;;;;;20.00;13.48;;;;;;;;;;143745;589;45022;-64
2022/03/28 02:32:33;;;;;;;20.50;12.43;;;;;;;;;;143744;571;46019;-65
2022/03/28 02:35:01;;;;;;;20.80;13.25;;;;;;;;;;143741;576;46022;-64
2022/03/28 02:37:28;;;;;;;19.17;12.50;;;;;;;;;;143742;629;46012;-64
2022/03/28 02:39:56;;;;;;;29.27;15.52;;;;;;;;;;143743;603;46023;-65
2022/03/28 02:42:23;;;;;;;23.00;13.60;;;;;;;;;;143742;595;46021;-64
2022/03/28 02:44:53;;;;;;;26.73;15.10;;;;;;;;;;143741;673;46022;-65
2022/03/28 02:47:21;;;;;;;26.12;15.52;;;;;;;;;;143741;642;46013;-64
2022/03/28 02:49:49;;;;;;;17.30;11.32;;;;;;;;;;143741;570;45023;-64
2022/03/28 02:52:16;;;;;;;20.80;14.23;;;;;;;;;;143742;716;46020;-64
2022/03/28 02:54:43;;;;;;;19.00;14.52;;;;;;;;;;143738;591;46919;-64
2022/03/28 02:57:10;;;;;;;24.77;11.98;;;;;;;;;;143740;658;46012;-64
2022/03/28 02:59:37;;;;;;;30.70;14.93;;;;;;;;;;143745;696;45022;-64
2022/03/28 03:02:04;;;;;;;26.45;14.65;;;;;;;;;;143741;607;46020;-65
2022/03/28 03:04:33;;;;;;;17.55;11.90;;;;;;;;;;143738;615;46023;-65
2022/03/28 03:07:00;;;;;;;19.87;11.73;;;;;;;;;;143743;572;45911;-65
2022/03/28 03:09:27;;;;;;;20.10;13.20;;;;;;;;;;143745;581;45022;-64
2022/03/28 03:11:54;;;;;;;21.80;13.20;;;;;;;;;;143741;633;46021;-65
2022/03/28 03:14:21;;;;;;;16.58;11.73;;;;;;;;;;143739;608;46022;-65
2022/03/28 03:16:49;;;;;;;28.15;14.50;;;;;;;;;;143741;569;46012;-65
2022/03/28 03:19:16;;;;;;;36.63;14.80;;;;;;;;;;143746;591;45025;-65
2022/03/28 03:21:45;;;;;;;27.42;15.65;;;;;;;;;;143743;609;46018;-65
2022/03/28 03:24:12;;;;;;;32.47;14.87;;;;;;;;;;143739;595;46023;-65
2022/03/28 03:26:39;;;;;;;34.65;17.23;;;;;;;;;;143741;577;46012;-65
2022/03/28 03:29:06;;;;;;;24.00;14.00;;;;;;;;;;143744;582;45022;-64
2022/03/28 03:31:33;;;;;;;23.38;15.07;;;;;;;;;;143742;588;46020;-65
2022/03/28 03:34:00;;;;;;;16.60;12.07;;;;;;;;;;143740;565;46023;-64
2022/03/28 03:36:27;;;;;;;25.08;13.65;;;;;;;;;;143741;577;46012;-64
2022/03/28 03:38:55;;;;;;;29.73;16.75;;;;;;;;;;143741;606;46012;-65
2022/03/28 03:41:22;;;;;;;35.33;17.52;;;;;;;;;;143743;574;46021;-65
2022/03/28 03:43:49;;;;;;;35.38;15.93;;;;;;;;;;143740;589;46022;-64
2022/03/28 03:46:16;;;;;;;20.52;13.35;;;;;;;;;;143743;594;46012;-64
2022/03/28 03:48:43;;;;;;;24.23;14.45;;;;;;;;;;143743;704;45023;-65
2022/03/28 03:51:11;;;;;;;25.33;15.05;;;;;;;;;;143742;593;46020;-64
2022/03/28 03:53:38;;;;;;;30.12;16.12;;;;;;;;;;143739;576;46022;-64
2022/03/28 03:56:05;;;;;;;26.85;16.08;;;;;;;;;;143741;577;46013;-64
2022/03/28 03:58:32;;;;;;;35.08;18.60;;;;;;;;;;143745;595;45022;-65
2022/03/28 04:00:59;;;;;;;30.00;16.77;;;;;;;;;;143744;624;46020;-65
2022/03/28 04:03:26;;;;;;;30.30;16.67;;;;;;;;;;143739;570;46030;-65
2022/03/28 04:05:53;;;;;;;30.52;16.65;;;;;;;;;;143744;614;46012;-64
2022/03/28 04:08:20;;;;;;;26.77;16.52;;;;;;;;;;143745;591;45022;-64
2022/03/28 04:10:47;;;;;;;34.22;18.23;;;;;;;;;;143744;566;46021;-64
2022/03/28 04:13:14;;;;;;;21.62;13.57;;;;;;;;;;143741;582;46022;-65
2022/03/28 04:15:41;;;;;;;31.30;16.30;;;;;;;;;;143743;617;46012;-64
2022/03/28 04:18:08;;;;;;;35.53;16.12;;;;;;;;;;143745;607;45023;-65
2022/03/28 04:20:35;;;;;;;43.10;19.50;;;;;;;;;;143743;579;46020;-65
2022/03/28 04:23:03;;;;;;;33.63;17.17;;;;;;;;;;143740;590;46022;-65
2022/03/28 04:25:30;;;;;;;52.00;17.50;;;;;;;;;;143746;589;45019;-65
2022/03/28 04:27:57;;;;;;;34.63;15.32;;;;;;;;;;143746;618;45022;-65
2022/03/28 04:30:23;;;;;;;37.65;17.15;;;;;;;;;;143743;563;46020;-65
2022/03/28 04:32:51;;;;;;;27.52;16.67;;;;;;;;;;143742;571;46023;-65
2022/03/28 04:35:19;;;;;;;29.95;16.23;;;;;;;;;;143743;591;46012;-65
2022/03/28 04:37:46;;;;;;;29.90;16.83;;;;;;;;;;143744;674;46022;-65
2022/03/28 04:40:16;;;;;;;23.17;15.00;;;;;;;;;;143744;580;46024;-65
2022/03/28 04:42:44;;;;;;;26.45;15.38;;;;;;;;;;143741;584;46022;-65
2022/03/28 04:45:11;;;;;;;36.35;16.62;;;;;;;;;;143743;618;46018;-65
2022/03/28 04:47:39;;;;;;;24.17;15.38;;;;;;;;;;143744;570;45037;-65
2022/03/28 04:50:08;;;;;;;28.00;14.32;;;;;;;;;;143744;585;46018;-65
2022/03/28 04:52:35;;;;;;;26.58;15.57;;;;;;;;;;143741;584;46022;-65
2022/03/28 04:55:04;;;;;;;18.70;11.93;;;;;;;;;;143744;610;46010;-65
2022/03/28 04:57:31;;;;;;;22.90;13.93;;;;;;;;;;143746;591;45022;-65
2022/03/28 04:59:59;;;;;;;20.17;12.50;;;;;;;;;;143743;569;46020;-65
2022/03/28 05:02:26;;;;;;;22.65;14.27;;;;;;;;;;143741;583;46023;-66
2022/03/28 05:04:53;;;;;;;37.45;19.23;;;;;;;;;;143742;580;46010;-65
2022/03/28 05:07:26;;;;;;;26.90;14.38;;;;;;;;;;143747;578;46022;-65
2022/03/28 05:09:53;;;;;;;39.95;17.00;;;;;;;;;;143744;704;46019;-65
2022/03/28 05:12:21;;;;;;;38.33;18.90;;;;;;;;;;143744;662;46022;-65
2022/03/28 05:14:48;;;;;;;25.15;17.00;;;;;;;;;;143744;650;46010;-65
2022/03/28 05:17:18;;;;;;;47.80;28.58;;;;;;;;;;143743;631;45023;-65
2022/03/28 05:19:45;;;;;;;41.58;23.30;;;;;;;;;;143743;590;46020;-65
2022/03/28 05:22:12;;;;;;;37.40;20.02;;;;;;;;;;143741;595;46022;-66
2022/03/28 05:24:39;;;;;;;33.72;19.08;;;;;;;;;;143742;566;46011;-65
2022/03/28 05:27:06;;;;;;;35.78;18.62;;;;;;;;;;143743;744;46023;-65
2022/03/28 05:29:33;;;;;;;27.23;18.30;;;;;;;;;;143744;579;46018;-65
2022/03/28 05:32:01;;;;;;;34.85;16.75;;;;;;;;;;143740;576;46023;-65
2022/03/28 05:34:30;;;;;;;43.97;21.27;;;;;;;;;;143745;692;46010;-65
2022/03/28 05:37:11;;;;;;;37.88;23.60;;;;;;;;;;143746;577;46022;-65
2022/03/28 05:39:39;;;;;;;33.58;19.98;;;;;;;;;;143744;583;46020;-65
2022/03/28 05:42:07;;;;;;;34.42;21.10;;;;;;;;;;143744;576;46022;-65
2022/03/28 05:44:35;;;;;;;28.42;16.92;;;;;;;;;;143744;601;46010;-65
2022/03/28 05:47:02;;;;;;;34.58;18.98;;;;;;;;;;143745;585;45023;-65
2022/03/28 05:49:29;;;;;;;46.60;29.15;;;;;;;;;;143745;701;46018;-65
2022/03/28 05:51:57;;;;;;;56.78;36.90;;;;;;;;;;143741;728;46022;-65
2022/03/28 05:54:23;;;;;;;48.35;33.15;;;;;;;;;;143741;601;46018;-65
2022/03/28 05:56:51;;;;;;;53.05;32.83;;;;;;;;;;143743;585;45034;-65
2022/03/28 05:59:18;;;;;;;43.75;26.45;;;;;;;;;;143743;599;46020;-64
2022/03/28 06:01:45;;;;;;;48.13;26.20;;;;;;;;;;143741;585;46023;-64
2022/03/28 06:04:13;;;;;;;45.33;27.25;;;;;;;;;;143743;612;46010;-65
2022/03/28 06:06:39;;;;;;;44.38;27.42;;;;;;;;;;143747;594;46022;-65
2022/03/28 06:09:07;;;;;;;58.58;30.90;;;;;;;;;;143742;573;47020;-65
2022/03/28 06:11:34;;;;;;;52.75;32.08;;;;;;;;;;143740;608;46022;-65
2022/03/28 06:14:01;;;;;;;56.22;31.77;;;;;;;;;;143743;591;46010;-65
2022/03/28 06:16:28;;;;;;;58.83;35.15;;;;;;;;;;143747;603;45023;-65
2022/03/28 06:18:55;;;;;;;76.18;38.70;;;;;;;;;;143742;581;46018;-65
2022/03/28 06:21:22;;;;;;;85.22;45.92;;;;;;;;;;143741;595;46022;-64
2022/03/28 06:23:49;;;;;;;71.40;40.80;;;;;;;;;;143741;577;46011;-64
2022/03/28 06:26:17;;;;;;;91.53;48.28;;;;;;;;;;143743;586;45023;-64
2022/03/28 06:28:46;;;;;;;75.32;36.97;;;;;;;;;;143743;602;46020;-64
2022/03/28 06:31:13;;;;;;;81.35;40.92;;;;;;;;;;143742;658;46031;-65
2022/03/28 06:33:41;;;;;;;72.18;33.30;;;;;;;;;;143742;616;46010;-64
2022/03/28 06:36:08;;;;;;;61.13;30.45;;;;;;;;;;143745;701;46022;-65
2022/03/28 06:38:35;;;;;;;78.62;34.13;;;;;;;;;;143744;575;46019;-64
2022/03/28 06:41:02;;;;;;;65.00;27.48;;;;;;;;;;143740;610;46022;-64
2022/03/28 06:43:29;;;;;;;58.92;27.42;;;;;;;;;;143742;577;46010;-65
2022/03/28 06:45:57;;;;;;;46.47;25.83;;;;;;;;;;143746;600;45023;-64
2022/03/28 06:48:24;;;;;;;48.28;25.70;;;;;;;;;;143743;604;47018;-64
2022/03/28 06:50:51;;;;;;;57.95;28.58;;;;;;;;;;143740;610;46022;-64
2022/03/28 06:53:19;;;;;;;77.00;34.28;;;;;;;;;;143742;588;46010;-64
2022/03/28 06:55:46;;;;;;;83.65;43.60;;;;;;;;;;143747;579;45023;-64
2022/03/28 06:58:13;;;;;;;83.05;41.42;;;;;;;;;;143743;645;46020;-65
2022/03/28 07:00:40;;;;;;;87.18;45.50;;;;;;;;;;143740;578;46023;-64
2022/03/28 07:03:07;;;;;;;92.45;44.28;;;;;;;;;;143741;595;46010;-65
2022/03/28 07:05:35;;;;;;;86.43;40.53;;;;;;;;;;143746;619;46022;-65
2022/03/28 07:08:02;;;;;;;68.78;34.72;;;;;;;;;;143744;588;46020;-64
2022/03/28 07:10:29;;;;;;;64.40;33.38;;;;;;;;;;143741;579;46023;-64
2022/03/28 07:12:57;;;;;;;67.03;29.25;;;;;;;;;;143741;669;46010;-64
2022/03/28 07:15:24;;;;;;;68.90;29.67;;;;;;;;;;143745;583;46023;-64
2022/03/28 07:17:54;;;;;;;74.93;31.62;;;;;;;;;;143745;581;46021;-64
2022/03/28 07:20:26;;;;;;;67.95;29.37;;;;;;;;;;143741;605;46022;-64
2022/03/28 07:22:54;;;;;;;56.53;27.83;;;;;;;;;;143742;578;46011;-64
2022/03/28 07:25:23;;;;;;;71.15;29.55;;;;;;;;;;143746;588;45023;-65
2022/03/28 07:27:50;;;;;;;73.68;31.30;;;;;;;;;;143744;576;46020;-64
2022/03/28 07:30:19;;;;;;;67.00;31.45;;;;;;;;;;143741;583;46025;-64
2022/03/28 07:32:46;;;;;;;47.00;23.83;;;;;;;;;;143740;583;46909;-65
2022/03/28 07:35:15;;;;;;;61.03;30.25;;;;;;;;;;143745;570;45022;-64
2022/03/28 07:37:43;;;;;;;65.55;30.20;;;;;;;;;;143744;589;46020;-64
2022/03/28 07:40:12;;;;;;;53.60;25.05;;;;;;;;;;143742;611;46022;-65
2022/03/28 07:42:41;;;;;;;40.78;22.90;;;;;;;;;;143743;585;46010;-65
2022/03/28 07:45:08;;;;;;;53.92;25.15;;;;;;;;;;143745;629;46022;-64
2022/03/28 07:47:36;;;;;;;45.70;23.48;;;;;;;;;;143742;594;46021;-63
2022/03/28 07:50:04;;;;;;;43.22;21.45;;;;;;;;;;143739;584;48010;-64
2022/03/28 07:52:31;;;;;;;47.80;22.60;;;;;;;;;;143743;623;46010;-64
2022/03/28 07:54:58;;;;;;;40.55;21.42;;;;;;;;;;143744;589;45023;-63
2022/03/28 07:57:25;;;;;;;36.47;18.85;;;;;;;;;;143743;604;46020;-64
2022/03/28 07:59:52;;;;;;;31.60;16.40;;;;;;;;;;143741;564;46022;-64
2022/03/28 08:02:19;;;;;;;27.52;14.95;;;;;;;;;;143743;585;46010;-63
2022/03/28 08:04:46;;;;;;;36.88;19.02;;;;;;;;;;143740;569;51022;-63
2022/03/28 08:07:14;;;;;;;36.30;18.12;;;;;;;;;;143743;570;46020;-64
2022/03/28 08:09:41;;;;;;;28.62;15.75;;;;;;;;;;143742;573;46022;-62
2022/03/28 08:12:10;;;;;;;28.15;16.35;;;;;;;;;;143741;611;46010;-63
2022/03/28 08:14:38;;;;;;;22.77;14.77;;;;;;;;;;143747;637;46022;-63
2022/03/28 08:17:06;;;;;;;21.20;13.57;;;;;;;;;;143742;745;46021;-64
2022/03/28 08:19:32;;;;;;;23.33;14.30;;;;;;;;;;143741;635;46022;-63
2022/03/28 08:21:59;;;;;;;27.13;14.52;;;;;;;;;;143740;616;46011;-64
2022/03/28 08:24:26;;;;;;;24.33;15.57;;;;;;;;;;143746;566;46010;-64
2022/03/28 08:26:53;;;;;;;22.58;15.40;;;;;;;;;;143743;585;47018;-64
2022/03/28 08:29:20;;;;;;;34.35;22.87;;;;;;;;;;143742;585;46022;-64
2022/03/28 08:31:48;;;;;;;33.03;20.52;;;;;;;;;;143742;607;46010;-64
2022/03/28 08:34:16;;;;;;;39.42;23.08;;;;;;;;;;143745;579;45022;-64
2022/03/28 08:36:42;;;;;;;31.25;18.45;;;;;;;;;;143741;808;47019;-63
2022/03/28 08:39:09;;;;;;;53.67;30.27;;;;;;;;;;143742;662;46022;-64
2022/03/28 08:41:36;;;;;;;37.67;23.80;;;;;;;;;;143742;805;46010;-63
2022/03/28 08:44:04;;;;;;;38.03;24.67;;;;;;;;;;143741;597;45022;-63
2022/03/28 08:46:31;;;;;;;40.10;26.12;;;;;;;;;;143742;573;46019;-64
2022/03/28 08:48:59;;;;;;;38.97;24.30;;;;;;;;;;143739;872;46022;-63
2022/03/28 08:51:30;;;;;;;39.90;22.90;;;;;;;;;;143739;637;46010;-63
2022/03/28 08:53:57;;;;;;;33.95;21.35;;;;;;;;;;143744;751;45023;-63
2022/03/28 08:56:24;;;;;;;31.75;19.15;;;;;;;;;;143743;592;46020;-63
2022/03/28 08:58:51;;;;;;;27.35;17.42;;;;;;;;;;143738;604;46022;-64
2022/03/28 09:01:21;;;;;;;23.92;14.60;;;;;;;;;;143739;584;46010;-63
2022/03/28 09:03:49;;;;;;;25.80;15.30;;;;;;;;;;143741;577;46022;-64
2022/03/28 09:06:42;;;;;;;28.87;14.60;;;;;;;;;;143742;634;46020;-64
2022/03/28 09:09:15;;;;;;;29.27;16.15;;;;;;;;;;143740;904;46022;-64
2022/03/28 09:11:44;;;;;;;31.25;16.58;;;;;;;;;;143741;589;46010;-63
2022/03/28 09:14:14;;;;;;;27.42;17.35;;;;;;;;;;143745;607;46022;-64
2022/03/28 09:16:41;;;;;;;34.10;19.15;;;;;;;;;;143741;616;46021;-64
2022/03/28 09:19:10;;;;;;;28.25;16.17;;;;;;;;;;143739;599;46022;-65
2022/03/28 09:21:37;;;;;;;26.45;16.15;;;;;;;;;;143741;613;46010;-64
2022/03/28 09:24:08;;;;;;;30.27;17.83;;;;;;;;;;143744;609;46023;-64
2022/03/28 09:26:36;;;;;;;20.40;13.55;;;;;;;;;;143740;580;47018;-65
2022/03/28 09:29:05;;;;;;;22.75;14.55;;;;;;;;;;143738;574;46023;-65
2022/03/28 09:31:36;;;;;;;24.85;14.23;;;;;;;;;;143740;597;46010;-64
2022/03/28 09:34:17;;;;;;;29.25;16.98;;;;;;;;;;143741;617;45022;-65
2022/03/28 09:36:48;;;;;;;22.00;16.23;;;;;;;;;;143742;582;46020;-64
2022/03/28 09:39:20;;;;;;;25.55;15.40;;;;;;;;;;143741;838;46022;-64
2022/03/28 09:42:09;;;;;;;30.35;14.90;;;;;;;;;;143742;765;46010;-64
2022/03/28 09:44:42;;;;;;;24.58;14.18;;;;;;;;;;143744;648;45023;-64
2022/03/28 09:47:11;;;;;;;23.02;13.60;;;;;;;;;;143742;710;46018;-65
2022/03/28 09:49:41;;;;;;;22.00;12.93;;;;;;;;;;143739;598;46022;-64
2022/03/28 09:52:14;;;;;;;21.40;13.65;;;;;;;;;;143743;607;46010;-64
2022/03/28 09:54:52;;;;;;;24.10;15.57;;;;;;;;;;143742;701;46010;-63
2022/03/28 09:57:28;;;;;;;19.60;13.27;;;;;;;;;;143740;569;47031;-65
2022/03/28 10:00:12;;;;;;;23.08;14.68;;;;;;;;;;143738;566;46023;-64
2022/03/28 10:02:39;;;;;;;21.25;15.48;;;;;;;;;;143743;612;46010;-64
2022/03/28 10:05:07;;;;;;;29.45;17.75;;;;;;;;;;143744;604;45022;-65
2022/03/28 10:07:34;;;;;;;22.77;15.70;;;;;;;;;;143741;586;47018;-65
2022/03/28 10:10:03;;;;;;;27.42;15.02;;;;;;;;;;143737;780;46022;-64
2022/03/28 10:12:29;;;;;;;24.85;15.18;;;;;;;;;;143742;611;46010;-65
2022/03/28 10:14:58;;;;;;;25.48;16.85;;;;;;;;;;143744;596;46023;-64
2022/03/28 10:17:26;;;;;;;40.38;23.25;;;;;;;;;;143740;599;47021;-65
2022/03/28 10:19:53;;;;;;;28.12;18.23;;;;;;;;;;143738;582;46022;-64
2022/03/28 10:22:35;;;;;;;26.70;18.10;;;;;;;;;;143740;591;46010;-64
2022/03/28 10:25:08;;;;;;;32.17;19.58;;;;;;;;;;143744;577;46022;-64
2022/03/28 10:27:37;;;;;;;42.75;27.92;;;;;;;;;;143743;620;46018;-63
2022/03/28 10:30:27;;;;;;;29.48;19.27;;;;;;;;;;143738;594;46023;-64
2022/03/28 10:33:22;;;;;;;31.15;19.85;;;;;;;;;;143740;612;46010;-64
2022/03/28 10:36:05;;;;;;;27.85;19.33;;;;;;;;;;143739;620;45024;-64
2022/03/28 10:38:32;;;;;;;25.25;15.90;;;;;;;;;;143740;566;46021;-63
2022/03/28 10:41:03;;;;;;;30.12;18.25;;;;;;;;;;143737;619;46022;-64
2022/03/28 10:43:33;;;;;;;27.23;18.42;;;;;;;;;;143742;574;46010;-64
2022/03/28 10:46:11;;;;;;;33.15;19.00;;;;;;;;;;143747;581;45023;-64
2022/03/28 10:48:43;;;;;;;27.67;17.90;;;;;;;;;;143740;717;46020;-64
2022/03/28 10:51:21;;;;;;;28.98;19.40;;;;;;;;;;143738;599;47010;-63
2022/03/28 10:54:09;;;;;;;33.42;19.67;;;;;;;;;;143739;594;46035;-63
2022/03/28 10:56:43;;;;;;;26.60;17.58;;;;;;;;;;143745;591;46022;-64
2022/03/28 10:59:13;;;;;;;24.70;16.65;;;;;;;;;;143743;633;46020;-64
2022/03/28 11:01:52;;;;;;;28.90;17.50;;;;;;;;;;143737;598;46023;-64
2022/03/28 11:04:23;;;;;;;24.70;15.95;;;;;;;;;;143742;731;46012;-65
2022/03/28 11:07:21;;;;;;;30.05;16.17;;;;;;;;;;143750;686;45023;-65
2022/03/28 11:09:54;;;;;;;29.65;16.52;;;;;;;;;;143741;607;46022;-65
2022/03/28 11:12:51;;;;;;;25.27;16.40;;;;;;;;;;143741;615;46022;-64
2022/03/28 11:15:24;;;;;;;27.05;16.33;;;;;;;;;;143737;621;46012;-65
2022/03/28 11:18:09;;;;;;;24.50;14.90;;;;;;;;;;143744;716;46022;-64
2022/03/28 11:20:47;;;;;;;26.77;16.35;;;;;;;;;;143742;624;46020;-64
2022/03/28 11:23:21;;;;;;;24.92;14.60;;;;;;;;;;143738;599;46023;-64
2022/03/28 11:25:56;;;;;;;62.73;37.80;;;;;;;;;;143740;585;46012;-63
2022/03/28 11:28:27;;;;;;;54.13;35.13;;;;;;;;;;143743;620;46022;-63
2022/03/28 11:31:16;;;;;;;35.65;21.27;;;;;;;;;;143743;689;46018;-64
2022/03/28 11:33:48;;;;;;;26.73;17.02;;;;;;;;;;143738;570;46022;-63
2022/03/28 11:36:20;;;;;;;33.97;20.95;;;;;;;;;;143740;564;46016;-63
2022/03/28 11:38:55;;;;;;;27.30;16.27;;;;;;;;;;143744;602;46022;-64
2022/03/28 11:41:27;;;;;;;28.45;14.82;;;;;;;;;;143742;598;46020;-63
2022/03/28 11:43:56;;;;;;;26.77;15.23;;;;;;;;;;143739;859;46023;-63
2022/03/28 11:46:30;;;;;;;24.98;16.12;;;;;;;;;;143743;769;46012;-64
2022/03/28 11:48:59;;;;;;;25.73;14.85;;;;;;;;;;143744;832;46022;-64
2022/03/28 11:51:29;;;;;;;25.88;15.93;;;;;;;;;;143741;564;46020;-64
2022/03/28 11:54:06;;;;;;;20.92;13.15;;;;;;;;;;143738;869;46022;-63
2022/03/28 11:59:26;;;;;;;23.23;16.17;;;;;;;;;;143742;565;46023;-63
2022/03/28 12:01:58;;;;;;;24.02;16.30;;;;;;;;;;143741;583;46022;-63
2022/03/28 12:04:25;;;;;;;29.27;16.58;;;;;;;;;;143737;652;46020;-64
2022/03/28 12:06:53;;;;;;;24.05;15.93;;;;;;;;;;143741;570;46012;-63
2022/03/28 12:09:21;;;;;;;26.62;17.58;;;;;;;;;;143743;721;45020;-64
2022/03/28 12:11:50;;;;;;;22.83;16.52;;;;;;;;;;143740;614;47034;-64
2022/03/28 12:14:17;;;;;;;27.23;17.35;;;;;;;;;;143741;803;46020;-63
2022/03/28 12:16:49;;;;;;;26.08;16.58;;;;;;;;;;143742;565;46012;-63
2022/03/28 12:19:20;;;;;;;29.17;16.42;;;;;;;;;;143744;624;46020;-63
2022/03/28 12:21:48;;;;;;;21.73;16.20;;;;;;;;;;143743;617;46021;-63
2022/03/28 12:24:16;;;;;;;24.27;14.93;;;;;;;;;;143741;564;46020;-63
2022/03/28 12:26:47;;;;;;;22.67;13.98;;;;;;;;;;143742;640;46012;-63
2022/03/28 12:29:16;;;;;;;19.62;13.60;;;;;;;;;;143745;618;46021;-63
2022/03/28 12:31:47;;;;;;;22.58;14.70;;;;;;;;;;143737;589;47023;-63
2022/03/28 12:34:15;;;;;;;21.95;13.85;;;;;;;;;;143740;758;46020;-63
2022/03/28 12:36:43;;;;;;;22.70;12.52;;;;;;;;;;143741;584;46012;-63
2022/03/28 12:39:12;;;;;;;20.42;12.73;;;;;;;;;;143744;564;45020;-63
2022/03/28 12:41:47;;;;;;;22.73;13.32;;;;;;;;;;143742;566;46022;-63
2022/03/28 12:44:24;;;;;;;19.85;12.98;;;;;;;;;;143740;564;46021;-64
2022/03/28 12:47:00;;;;;;;25.95;14.50;;;;;;;;;;143740;636;46012;-63
2022/03/28 12:49:27;;;;;;;21.65;13.95;;;;;;;;;;143744;632;46020;-63
2022/03/28 12:51:54;;;;;;;19.85;12.52;;;;;;;;;;143740;585;47022;-63
2022/03/28 12:54:23;;;;;;;16.90;11.93;;;;;;;;;;143739;604;46020;-63
2022/03/28 12:56:56;;;;;;;23.40;11.65;;;;;;;;;;143742;580;45020;-63
2022/03/28 12:59:30;;;;;;;19.23;12.50;;;;;;;;;;143742;564;45021;-63
2022/03/28 13:02:13;;;;;;;24.90;13.17;;;;;;;;;;143741;576;48020;-64
2022/03/28 13:04:50;;;;;;;23.38;13.00;;;;;;;;;;143741;571;46020;-64
2022/03/28 13:07:22;;;;;;;22.20;13.70;;;;;;;;;;143737;565;46014;-63
2022/03/28 13:10:09;;;;;;;25.67;14.80;;;;;;;;;;143745;587;45020;-64
2022/03/28 13:12:41;;;;;;;28.05;18.10;;;;;;;;;;143742;633;46021;-63
2022/03/28 13:15:31;;;;;;;26.50;17.20;;;;;;;;;;143739;595;46020;-63
2022/03/28 13:18:12;;;;;;;24.15;14.68;;;;;;;;;;143742;612;46020;-63
2022/03/28 13:20:41;;;;;;;23.98;15.32;;;;;;;;;;143743;626;45021;-64
2022/03/28 13:23:25;;;;;;;23.23;14.43;;;;;;;;;;143741;569;46023;-63
2022/03/28 13:25:52;;;;;;;28.92;17.35;;;;;;;;;;143740;575;46020;-63
2022/03/28 13:28:28;;;;;;;24.25;15.27;;;;;;;;;;143740;596;46013;-63
2022/03/28 13:31:00;;;;;;;28.02;17.25;;;;;;;;;;143742;611;45020;-63
2022/03/28 13:33:27;;;;;;;26.85;15.68;;;;;;;;;;143742;587;46038;-63
2022/03/28 13:35:56;;;;;;;26.98;15.95;;;;;;;;;;143738;631;46021;-63
2022/03/28 13:38:25;;;;;;;26.17;16.00;;;;;;;;;;143742;771;46012;-63
2022/03/28 13:40:54;;;;;;;24.95;15.07;;;;;;;;;;143744;586;46020;-63
2022/03/28 13:43:22;;;;;;;22.77;14.43;;;;;;;;;;143741;637;46022;-64
2022/03/28 13:45:49;;;;;;;21.08;13.77;;;;;;;;;;143739;619;46020;-63
2022/03/28 13:48:18;;;;;;;24.12;14.85;;;;;;;;;;143740;720;46012;-63
2022/03/28 13:50:49;;;;;;;26.75;14.38;;;;;;;;;;143742;781;46020;-63
2022/03/28 13:53:16;;;;;;;24.33;14.90;;;;;;;;;;143741;735;46022;-64
2022/03/28 13:55:43;;;;;;;21.25;13.70;;;;;;;;;;143740;621;46020;-63
2022/03/28 13:58:10;;;;;;;22.10;13.60;;;;;;;;;;143741;637;46013;-63
2022/03/28 14:00:37;;;;;;;25.52;15.07;;;;;;;;;;143740;596;45021;-64
2022/03/28 14:03:06;;;;;;;25.35;15.05;;;;;;;;;;143737;564;46022;-63
2022/03/28 14:05:33;;;;;;;24.33;15.35;;;;;;;;;;143741;631;46021;-63
2022/03/28 14:08:00;;;;;;;27.20;15.82;;;;;;;;;;143738;565;46014;-63
2022/03/28 14:10:27;;;;;;;24.75;17.70;;;;;;;;;;143745;611;46020;-63
2022/03/28 14:12:54;;;;;;;25.40;17.80;;;;;;;;;;143740;571;46022;-64
2022/03/28 14:15:21;;;;;;;28.15;17.05;;;;;;;;;;143736;608;46020;-63
2022/03/28 14:17:48;;;;;;;29.27;18.48;;;;;;;;;;143741;569;46012;-64
2022/03/28 14:20:18;;;;;;;26.60;17.87;;;;;;;;;;143744;578;46020;-63
2022/03/28 14:22:45;;;;;;;28.38;16.37;;;;;;;;;;143741;624;46023;-63
2022/03/28 14:25:12;;;;;;;30.50;19.02;;;;;;;;;;143738;641;46020;-63
2022/03/28 14:27:39;;;;;;;36.40;17.98;;;;;;;;;;143740;619;46021;-63
2022/03/28 14:30:06;;;;;;;33.97;20.37;;;;;;;;;;143744;585;46020;-64
2022/03/28 14:32:34;;;;;;;33.33;18.40;;;;;;;;;;143741;716;46022;-63